createdAt,value
2023-03-17T00:00:22.302Z,4.63
2023-03-17T00:03:08.107Z,4.07
2023-03-17T00:05:54.851Z,3.83
2023-03-17T00:08:40.279Z,3.50
2023-03-17T00:11:27.612Z,3.73
2023-03-17T00:14:13.315Z,3.93
2023-03-17T00:16:58.576Z,3.90
2023-03-17T00:19:44.099Z,3.87
2023-03-17T00:22:29.452Z,4.13
2023-03-17T00:25:34.314Z,3.50
2023-03-17T00:28:25.457Z,3.83
2023-03-17T00:31:16.609Z,3.70
2023-03-17T00:34:02.351Z,4.00
2023-03-17T00:36:49.590Z,3.53
2023-03-17T00:39:35.122Z,4.80
2023-03-17T00:42:20.314Z,4.57
2023-03-17T00:45:06.009Z,4.67
2023-03-17T00:47:54.191Z,4.53
2023-03-17T00:50:39.698Z,4.33
2023-03-17T00:53:24.978Z,4.17
2023-03-17T00:56:13.944Z,3.43
2023-03-17T00:58:59.165Z,3.67
2023-03-17T01:01:44.600Z,3.53
2023-03-17T01:04:29.940Z,3.60
2023-03-17T01:07:15.251Z,4.47
2023-03-17T01:10:00.668Z,3.87
2023-03-17T01:12:46.274Z,5.23
2023-03-17T01:15:33.432Z,3.63
2023-03-17T01:18:21.501Z,4.10
2023-03-17T01:21:06.792Z,3.10
2023-03-17T01:23:52.366Z,3.20
2023-03-17T01:26:38.662Z,3.30
2023-03-17T01:29:24.142Z,3.07
2023-03-17T01:32:09.847Z,3.83
2023-03-17T01:34:55.061Z,3.27
2023-03-17T01:37:40.499Z,3.13
2023-03-17T01:40:29.661Z,3.90
2023-03-17T01:43:24.997Z,4.03
2023-03-17T01:46:16.328Z,3.53
2023-03-17T01:49:23.476Z,3.80
2023-03-17T01:52:13.143Z,2.80
2023-03-17T01:55:03.410Z,3.97
2023-03-17T01:57:53.080Z,3.07
2023-03-17T02:00:39.455Z,3.27
2023-03-17T02:03:26.047Z,3.77
2023-03-17T02:06:12.425Z,3.33
2023-03-17T02:08:58.851Z,3.90
2023-03-17T02:11:45.524Z,3.20
2023-03-17T02:14:31.166Z,4.47
2023-03-17T02:17:16.542Z,3.33
2023-03-17T02:20:17.073Z,3.60
2023-03-17T02:23:03.115Z,3.97
2023-03-17T02:25:51.742Z,2.80
2023-03-17T02:28:37.211Z,3.07
2023-03-17T02:31:27.682Z,2.93
2023-03-17T02:34:12.934Z,4.33
2023-03-17T02:36:58.970Z,3.27
2023-03-17T02:39:45.200Z,4.77
2023-03-17T02:42:30.439Z,3.60
2023-03-17T02:45:17.680Z,3.83
2023-03-17T02:48:04.295Z,4.30
2023-03-17T02:50:50.002Z,3.27
2023-03-17T02:53:35.580Z,3.30
2023-03-17T02:56:20.691Z,3.93
2023-03-17T02:59:06.006Z,5.93
2023-03-17T03:01:51.279Z,4.37
2023-03-17T03:04:36.908Z,3.03
2023-03-17T03:07:22.387Z,3.60
2023-03-17T03:10:08.113Z,4.43
2023-03-17T03:12:53.542Z,3.80
2023-03-17T03:15:41.606Z,2.90
2023-03-17T03:18:27.207Z,4.20
2023-03-17T03:21:15.202Z,3.03
2023-03-17T03:24:00.422Z,3.73
2023-03-17T03:26:45.711Z,2.67
2023-03-17T03:29:31.428Z,3.40
2023-03-17T03:32:16.659Z,3.33
2023-03-17T03:35:02.174Z,2.70
2023-03-17T03:37:48.060Z,2.50
2023-03-17T03:40:34.362Z,2.83
2023-03-17T03:43:23.711Z,2.60
2023-03-17T03:46:09.315Z,2.60
2023-03-17T03:48:55.153Z,3.27
2023-03-17T03:51:40.700Z,4.90
2023-03-17T03:54:25.935Z,2.50
2023-03-17T03:57:11.363Z,2.93
2023-03-17T03:59:56.517Z,3.10
2023-03-17T04:02:42.181Z,2.90
2023-03-17T04:05:27.560Z,3.93
2023-03-17T04:08:12.860Z,2.93
2023-03-17T04:10:58.981Z,5.37
2023-03-17T04:13:44.274Z,2.37
2023-03-17T04:16:29.730Z,3.03
2023-03-17T04:19:14.711Z,3.03
2023-03-17T04:21:59.835Z,2.63
2023-03-17T04:24:45.379Z,2.57
2023-03-17T04:27:30.938Z,2.87
2023-03-17T04:30:17.089Z,2.70
2023-03-17T04:33:02.696Z,2.33
2023-03-17T04:35:48.204Z,2.50
2023-03-17T04:38:34.236Z,2.50
2023-03-17T04:41:19.752Z,3.77
2023-03-17T04:44:05.468Z,2.60
2023-03-17T04:46:51.201Z,2.67
2023-03-17T04:49:36.819Z,2.57
2023-03-17T04:52:22.259Z,3.20
2023-03-17T04:55:08.075Z,2.63
2023-03-17T04:57:53.303Z,2.80
2023-03-17T05:00:38.757Z,3.93
2023-03-17T05:03:27.265Z,3.00
2023-03-17T05:06:13.632Z,2.70
2023-03-17T05:08:58.832Z,2.60
2023-03-17T05:11:44.052Z,3.93
2023-03-17T05:14:29.332Z,3.27
2023-03-17T05:17:15.015Z,3.83
2023-03-17T05:20:00.374Z,2.43
2023-03-17T05:22:45.777Z,2.87
2023-03-17T05:25:31.021Z,3.00
2023-03-17T05:28:16.282Z,3.60
2023-03-17T05:31:01.509Z,4.03
2023-03-17T05:33:46.927Z,2.90
2023-03-17T05:36:32.334Z,3.13
2023-03-17T05:39:17.796Z,2.80
2023-03-17T05:42:03.414Z,3.63
2023-03-17T05:44:49.031Z,6.60
2023-03-17T05:47:35.059Z,3.33
2023-03-17T05:50:20.255Z,3.03
2023-03-17T05:53:05.781Z,5.13
2023-03-17T05:55:50.952Z,3.10
2023-03-17T05:58:36.255Z,5.67
2023-03-17T06:01:21.855Z,3.57
2023-03-17T06:04:07.183Z,2.80
2023-03-17T06:06:52.802Z,6.63
2023-03-17T06:09:38.260Z,2.90
2023-03-17T06:12:24.246Z,3.30
2023-03-17T06:15:09.802Z,3.17
2023-03-17T06:17:55.201Z,2.97
2023-03-17T06:20:40.520Z,2.90
2023-03-17T06:23:25.645Z,3.40
2023-03-17T06:26:11.204Z,2.97
2023-03-17T06:28:56.666Z,2.50
2023-03-17T06:31:41.935Z,3.37
2023-03-17T06:34:27.303Z,2.73
2023-03-17T06:37:12.719Z,3.40
2023-03-17T06:39:58.023Z,3.73
2023-03-17T06:42:43.827Z,3.20
2023-03-17T06:45:29.702Z,3.17
2023-03-17T06:48:15.443Z,2.70
2023-03-17T06:51:00.913Z,4.17
2023-03-17T06:53:46.150Z,2.73
2023-03-17T06:56:31.360Z,2.17
2023-03-17T06:59:17.057Z,2.30
2023-03-17T07:02:02.707Z,2.47
2023-03-17T07:04:48.171Z,2.27
2023-03-17T07:07:33.899Z,3.00
2023-03-17T07:10:19.367Z,2.90
2023-03-17T07:13:04.734Z,2.13
2023-03-17T07:15:50.828Z,2.57
2023-03-17T07:18:36.005Z,2.57
2023-03-17T07:21:21.662Z,1.77
2023-03-17T07:24:06.838Z,1.83
2023-03-17T07:26:52.133Z,4.90
2023-03-17T07:29:37.457Z,4.40
2023-03-17T07:32:22.907Z,2.83
2023-03-17T07:35:08.280Z,2.13
2023-03-17T07:37:53.415Z,2.90
2023-03-17T07:40:38.908Z,2.27
2023-03-17T07:43:24.072Z,3.73
2023-03-17T07:46:09.640Z,2.23
2023-03-17T07:48:55.486Z,1.87
2023-03-17T07:51:41.059Z,2.20
2023-03-17T07:54:28.471Z,1.93
2023-03-17T07:57:13.977Z,1.90
2023-03-17T07:59:59.142Z,3.20
2023-03-17T08:02:44.393Z,3.90
2023-03-17T08:05:29.800Z,1.70
2023-03-17T08:08:15.001Z,2.80
2023-03-17T08:11:04.957Z,3.97
2023-03-17T08:13:50.452Z,3.23
2023-03-17T08:16:35.915Z,2.07
2023-03-17T08:19:21.835Z,2.00
2023-03-17T08:22:07.441Z,1.50
2023-03-17T08:24:52.560Z,2.60
2023-03-17T08:27:37.685Z,1.60
2023-03-17T08:30:23.259Z,1.33
2023-03-17T08:33:09.259Z,2.28
2023-03-17T08:35:54.424Z,2.55
2023-03-17T08:38:41.356Z,2.00
2023-03-17T08:41:27.845Z,1.52
2023-03-17T08:44:13.581Z,2.92
2023-03-17T08:46:59.118Z,1.73
2023-03-17T08:49:44.224Z,2.88
2023-03-17T08:52:29.859Z,3.22
2023-03-17T08:55:15.879Z,1.50
2023-03-17T08:58:01.093Z,1.60
2023-03-17T09:00:46.815Z,1.38
2023-03-17T09:03:33.806Z,2.25
2023-03-17T09:06:19.510Z,2.10
2023-03-17T09:09:05.016Z,1.42
2023-03-17T09:11:50.413Z,1.30
2023-03-17T09:14:43.521Z,2.17
2023-03-17T09:17:29.265Z,1.27
2023-03-17T09:20:14.742Z,1.67
2023-03-17T09:23:00.156Z,2.83
2023-03-17T09:25:45.733Z,1.73
2023-03-17T09:28:31.128Z,1.83
2023-03-17T09:31:16.614Z,2.40
2023-03-17T09:34:02.663Z,1.55
2023-03-17T09:36:48.722Z,2.20
2023-03-17T09:39:34.004Z,2.25
2023-03-17T09:42:26.588Z,1.95
2023-03-17T09:45:24.534Z,1.10
2023-03-17T09:48:40.620Z,1.20
2023-03-17T09:51:26.276Z,1.77
2023-03-17T09:54:16.215Z,4.82
2023-03-17T09:57:16.533Z,2.08
2023-03-17T10:00:13.044Z,1.63
2023-03-17T10:02:59.001Z,1.42
2023-03-17T10:05:44.828Z,1.50
2023-03-17T10:08:33.239Z,2.08
2023-03-17T10:11:24.375Z,1.90
2023-03-17T10:14:27.607Z,1.58
2023-03-17T10:17:13.378Z,1.48
2023-03-17T10:20:05.392Z,1.65
2023-03-17T10:22:59.216Z,2.90
2023-03-17T10:25:44.874Z,1.75
2023-03-17T10:28:32.814Z,1.80
2023-03-17T10:31:26.648Z,1.20
2023-03-17T10:34:14.834Z,1.65
2023-03-17T10:37:07.378Z,1.10
2023-03-17T10:39:56.630Z,1.27
2023-03-17T10:42:51.937Z,1.23
2023-03-17T10:45:42.231Z,1.65
2023-03-17T10:48:36.963Z,1.90
2023-03-17T10:51:34.441Z,1.30
2023-03-17T10:54:22.638Z,1.40
2023-03-17T10:57:08.350Z,1.55
2023-03-17T10:59:59.522Z,2.95
2023-03-17T11:02:49.251Z,1.17
2023-03-17T11:05:34.628Z,1.63
2023-03-17T11:08:20.129Z,1.17
2023-03-17T11:11:21.338Z,1.80
2023-03-17T11:14:11.447Z,1.73
2023-03-17T11:17:13.615Z,1.58
2023-03-17T11:20:05.148Z,1.80
2023-03-17T11:23:23.890Z,1.50
2023-03-17T11:26:24.661Z,1.70
2023-03-17T11:29:37.679Z,1.52
2023-03-17T11:32:41.418Z,1.55
2023-03-17T11:35:32.769Z,1.40
2023-03-17T11:38:24.398Z,1.50
2023-03-17T11:41:31.425Z,1.85
2023-03-17T11:44:38.716Z,2.42
2023-03-17T11:47:45.163Z,1.10
2023-03-17T11:51:05.812Z,0.90
2023-03-17T11:53:59.850Z,2.13
2023-03-17T11:57:00.935Z,1.23
2023-03-17T11:59:52.281Z,1.55
2023-03-17T12:02:49.382Z,1.48
2023-03-17T12:05:35.475Z,2.08
2023-03-17T12:08:38.686Z,2.38
2023-03-17T12:11:28.980Z,1.77
2023-03-17T12:14:36.386Z,1.27
2023-03-17T12:17:34.392Z,2.35
2023-03-17T12:20:55.145Z,2.53
2023-03-17T12:23:52.333Z,1.70
2023-03-17T12:27:07.307Z,1.33
2023-03-17T12:30:00.446Z,1.00
2023-03-17T12:33:30.941Z,1.10
2023-03-17T12:36:17.937Z,1.90
2023-03-17T12:39:13.742Z,1.30
2023-03-17T12:42:10.856Z,2.83
2023-03-17T12:45:23.390Z,0.90
2023-03-17T12:48:23.796Z,1.63
2023-03-17T12:51:46.736Z,2.78
2023-03-17T12:54:37.473Z,1.08
2023-03-17T12:57:30.030Z,1.90
2023-03-17T13:00:23.230Z,1.45
2023-03-17T13:03:14.254Z,1.80
2023-03-17T13:06:06.200Z,2.83
2023-03-17T13:08:53.104Z,1.45
2023-03-17T13:11:38.422Z,1.63
2023-03-17T13:14:42.731Z,2.45
2023-03-17T13:17:28.081Z,1.25
2023-03-17T13:20:17.434Z,1.35
2023-03-17T13:23:16.145Z,0.95
2023-03-17T13:26:01.647Z,1.15
2023-03-17T13:28:51.227Z,1.20
2023-03-17T13:31:37.341Z,1.13
2023-03-17T13:34:22.487Z,1.35
2023-03-17T13:37:29.287Z,2.92
2023-03-17T13:40:22.911Z,1.67
2023-03-17T13:43:17.504Z,2.13
2023-03-17T13:46:25.878Z,3.58
2023-03-17T13:49:20.286Z,1.20
2023-03-17T13:52:15.399Z,1.50
2023-03-17T13:55:18.648Z,2.25
2023-03-17T13:58:08.214Z,1.30
2023-03-17T14:01:00.552Z,3.47
2023-03-17T14:03:50.852Z,2.80
2023-03-17T14:06:38.183Z,2.38
2023-03-17T14:09:43.522Z,2.00
2023-03-17T14:12:46.714Z,1.17
2023-03-17T14:15:45.278Z,1.30
2023-03-17T14:18:33.709Z,1.30
2023-03-17T14:21:24.954Z,1.45
2023-03-17T14:24:29.920Z,1.00
2023-03-17T14:27:14.933Z,2.60
2023-03-17T14:30:06.753Z,1.70
2023-03-17T14:33:20.897Z,1.48
2023-03-17T14:36:09.214Z,1.25
2023-03-17T14:38:56.749Z,1.10
2023-03-17T14:41:42.197Z,3.60
2023-03-17T14:44:28.019Z,0.80
2023-03-17T14:47:39.712Z,1.42
2023-03-17T14:50:29.562Z,2.33
2023-03-17T14:53:15.082Z,2.10
2023-03-17T14:56:00.730Z,1.10
2023-03-17T14:58:49.892Z,1.15
2023-03-17T15:01:44.361Z,1.83
2023-03-17T15:04:35.353Z,1.60
2023-03-17T15:07:39.276Z,1.23
2023-03-17T15:10:27.482Z,1.63
2023-03-17T15:13:13.600Z,0.80
2023-03-17T15:15:59.190Z,2.42
2023-03-17T15:18:45.059Z,1.42
2023-03-17T15:21:43.500Z,1.40
2023-03-17T15:24:40.045Z,2.22
2023-03-17T15:27:25.810Z,2.20
2023-03-17T15:30:12.290Z,1.45
2023-03-17T15:33:01.209Z,1.75
2023-03-17T15:35:46.313Z,1.80
2023-03-17T15:38:32.173Z,1.30
2023-03-17T15:41:17.702Z,1.63
2023-03-17T15:44:04.199Z,1.55
2023-03-17T15:46:50.380Z,2.30
2023-03-17T15:49:35.694Z,1.35
2023-03-17T15:52:23.860Z,1.58
2023-03-17T15:55:16.964Z,3.78
2023-03-17T15:58:02.330Z,1.40
2023-03-17T16:00:51.419Z,2.05
2023-03-17T16:03:36.714Z,1.40
2023-03-17T16:06:24.572Z,1.45
2023-03-17T16:09:15.771Z,1.88
2023-03-17T16:12:00.899Z,1.38
2023-03-17T16:14:45.945Z,2.38
2023-03-17T16:17:33.062Z,3.50
2023-03-17T16:20:23.236Z,1.90
2023-03-17T16:23:11.595Z,2.45
2023-03-17T16:26:04.620Z,1.63
2023-03-17T16:28:57.651Z,1.45
2023-03-17T16:31:46.129Z,2.47
2023-03-17T16:34:31.259Z,2.58
2023-03-17T16:37:16.785Z,2.00
2023-03-17T16:40:02.010Z,1.35
2023-03-17T16:42:48.347Z,1.52
2023-03-17T16:45:34.825Z,2.58
2023-03-17T16:48:20.443Z,4.03
2023-03-17T16:51:07.396Z,1.52
2023-03-17T16:53:52.776Z,3.60
2023-03-17T16:56:40.555Z,1.38
2023-03-17T16:59:26.386Z,3.22
2023-03-17T17:02:15.975Z,4.03
2023-03-17T17:05:01.167Z,2.25
2023-03-17T17:07:47.990Z,1.85
2023-03-17T17:10:34.547Z,1.48
2023-03-17T17:13:19.742Z,2.88
2023-03-17T17:16:05.538Z,2.90
2023-03-17T17:18:51.120Z,1.45
2023-03-17T17:21:36.267Z,1.80
2023-03-17T17:24:21.690Z,1.88
2023-03-17T17:27:06.962Z,1.70
2023-03-17T17:29:52.321Z,1.45
2023-03-17T17:32:37.709Z,2.40
2023-03-17T17:35:24.000Z,2.90
2023-03-17T17:38:24.636Z,2.72
2023-03-17T17:41:12.152Z,2.63
2023-03-17T17:43:57.493Z,2.33
2023-03-17T17:46:42.673Z,3.05
2023-03-17T17:49:27.865Z,1.73
2023-03-17T17:52:13.162Z,2.95
2023-03-17T17:54:58.703Z,2.42
2023-03-17T17:57:44.275Z,1.63
2023-03-17T18:00:29.729Z,2.55
2023-03-17T18:03:15.249Z,6.93
2023-03-17T18:06:01.740Z,8.43
2023-03-17T18:08:49.110Z,6.53
2023-03-17T18:11:34.672Z,10.35
2023-03-17T18:14:20.610Z,6.88
2023-03-17T18:17:05.873Z,6.57
2023-03-17T18:19:52.435Z,8.32
2023-03-17T18:22:37.903Z,5.35
2023-03-17T18:25:23.735Z,4.55
2023-03-17T18:28:08.893Z,4.85
2023-03-17T18:30:54.802Z,6.32
2023-03-17T18:33:43.435Z,8.85
2023-03-17T18:36:29.754Z,8.88
2023-03-17T18:39:16.158Z,9.68
2023-03-17T18:42:01.748Z,6.57
2023-03-17T18:44:49.566Z,5.18
2023-03-17T18:47:34.666Z,4.43
2023-03-17T18:50:21.258Z,5.75
2023-03-17T18:53:06.855Z,7.20
2023-03-17T18:55:52.201Z,5.75
2023-03-17T18:58:37.244Z,7.65
2023-03-17T19:01:23.276Z,5.78
2023-03-17T19:04:08.887Z,4.75
2023-03-17T19:06:54.166Z,3.58
2023-03-17T19:09:39.726Z,4.00
2023-03-17T19:12:25.206Z,2.78
2023-03-17T19:15:11.385Z,2.42
2023-03-17T19:17:56.779Z,3.90
2023-03-17T19:20:42.529Z,4.20
2023-03-17T19:23:28.647Z,3.97
2023-03-17T19:26:14.340Z,4.25
2023-03-17T19:28:59.782Z,4.30
2023-03-17T19:31:48.431Z,4.50
2023-03-17T19:34:38.388Z,5.13
2023-03-17T19:37:24.139Z,4.45
2023-03-17T19:40:10.699Z,4.28
2023-03-17T19:42:56.585Z,7.60
2023-03-17T19:45:41.887Z,8.10
2023-03-17T19:48:27.302Z,9.68
2023-03-17T19:51:12.929Z,9.38
2023-03-17T19:53:58.137Z,8.23
2023-03-17T19:56:44.436Z,4.95
2023-03-17T19:59:32.090Z,5.85
2023-03-17T20:02:19.540Z,6.80
2023-03-17T20:05:05.812Z,7.63
2023-03-17T20:07:50.879Z,8.02
2023-03-17T20:10:36.228Z,9.52
2023-03-17T20:13:22.189Z,5.93
2023-03-17T20:16:08.494Z,6.45
2023-03-17T20:18:54.056Z,5.97
2023-03-17T20:21:39.258Z,4.85
2023-03-17T20:24:24.898Z,6.13
2023-03-17T20:27:10.708Z,4.30
2023-03-17T20:29:56.266Z,7.78
2023-03-17T20:32:41.644Z,4.32
2023-03-17T20:35:26.746Z,4.30
2023-03-17T20:38:12.199Z,4.45
2023-03-17T20:41:07.758Z,4.03
2023-03-17T20:43:53.143Z,3.63
2023-03-17T20:46:38.260Z,3.57
2023-03-17T20:49:23.730Z,3.40
2023-03-17T20:52:11.688Z,3.83
2023-03-17T20:54:57.694Z,4.43
2023-03-17T20:57:45.732Z,5.93
2023-03-17T21:00:32.006Z,5.40
2023-03-17T21:03:17.353Z,4.90
2023-03-17T21:06:02.968Z,4.82
2023-03-17T21:08:49.812Z,4.97
2023-03-17T21:11:36.707Z,4.10
2023-03-17T21:14:22.208Z,4.17
2023-03-17T21:17:09.869Z,3.60
2023-03-17T21:19:55.345Z,5.68
2023-03-17T21:22:40.927Z,5.57
2023-03-17T21:25:26.283Z,6.70
2023-03-17T21:28:11.588Z,6.93
2023-03-17T21:30:57.700Z,4.20
2023-03-17T21:33:43.566Z,4.37
2023-03-17T21:36:28.832Z,6.50
2023-03-17T21:39:14.024Z,6.20
2023-03-17T21:41:59.902Z,4.37
2023-03-17T21:44:45.519Z,5.43
2023-03-17T21:47:31.453Z,4.50
2023-03-17T21:50:18.801Z,5.27
2023-03-17T21:53:05.667Z,4.27
2023-03-17T21:55:52.134Z,5.37
2023-03-17T21:58:37.679Z,3.53
2023-03-17T22:01:23.800Z,4.50
2023-03-17T22:04:10.279Z,3.53
2023-03-17T22:06:55.538Z,5.00
2023-03-17T22:09:42.017Z,3.50
2023-03-17T22:12:28.219Z,3.40
2023-03-17T22:15:13.581Z,3.67
2023-03-17T22:17:58.780Z,3.20
2023-03-17T22:20:44.381Z,4.10
2023-03-17T22:23:30.459Z,3.47
2023-03-17T22:26:19.128Z,2.90
2023-03-17T22:29:04.465Z,6.33
2023-03-17T22:31:50.136Z,4.93
2023-03-17T22:34:35.847Z,3.20
2023-03-17T22:37:21.301Z,2.50
2023-03-17T22:40:07.585Z,2.63
2023-03-17T22:42:55.641Z,3.10
2023-03-17T22:45:41.203Z,2.93
2023-03-17T22:48:26.415Z,2.80
2023-03-17T22:51:15.065Z,2.53
2023-03-17T22:54:00.546Z,4.00
2023-03-17T22:56:45.986Z,3.73
2023-03-17T22:59:31.450Z,3.83
2023-03-17T23:02:18.555Z,5.00
2023-03-17T23:05:04.574Z,4.07
2023-03-17T23:07:51.402Z,3.70
2023-03-17T23:10:38.832Z,2.03
2023-03-17T23:13:24.285Z,3.40
2023-03-17T23:16:09.841Z,3.07
2023-03-17T23:18:55.518Z,3.43
2023-03-17T23:21:40.935Z,3.40
2023-03-17T23:24:26.143Z,2.40
2023-03-17T23:27:11.802Z,3.17
2023-03-17T23:29:57.274Z,4.00
2023-03-17T23:32:42.520Z,3.17
2023-03-17T23:35:28.069Z,2.17
2023-03-17T23:38:13.457Z,2.93
2023-03-17T23:40:59.268Z,3.43
2023-03-17T23:43:45.101Z,3.03
2023-03-17T23:46:31.378Z,3.13
2023-03-17T23:49:17.173Z,4.17
2023-03-17T23:52:02.443Z,4.50
2023-03-17T23:54:48.496Z,4.93
2023-03-17T23:57:34.516Z,3.67
